sensor_id;sensor_type;location;lat;lon;timestamp;temperature;humidity
831;DHT22;397;50.564;7.272;2022-10-16T00:01:21;14.50;99.90
831;DHT22;397;50.564;7.272;2022-10-16T00:03:49;14.50;99.90
831;DHT22;397;50.564;7.272;2022-10-16T00:06:20;14.50;99.90
831;DHT22;397;50.564;7.272;2022-10-16T00:08:48;14.50;99.90
831;DHT22;397;50.564;7.272;2022-10-16T00:11:24;14.50;99.90
831;DHT22;397;50.564;7.272;2022-10-16T00:14:12;14.40;99.90
831;DHT22;397;50.564;7.272;2022-10-16T00:16:41;14.40;99.90
831;DHT22;397;50.564;7.272;2022-10-16T00:19:10;14.40;99.90
831;DHT22;397;50.564;7.272;2022-10-16T00:21:39;14.40;99.90
831;DHT22;397;50.564;7.272;2022-10-16T00:24:08;14.40;99.90
831;DHT22;397;50.564;7.272;2022-10-16T00:26:37;14.40;99.90
831;DHT22;397;50.564;7.272;2022-10-16T00:29:05;14.30;99.90
831;DHT22;397;50.564;7.272;2022-10-16T00:31:33;14.40;99.90
831;DHT22;397;50.564;7.272;2022-10-16T00:34:00;14.30;99.90
831;DHT22;397;50.564;7.272;2022-10-16T00:36:28;14.30;99.90
831;DHT22;397;50.564;7.272;2022-10-16T00:38:58;14.30;99.90
831;DHT22;397;50.564;7.272;2022-10-16T00:41:27;14.30;99.90
831;DHT22;397;50.564;7.272;2022-10-16T00:43:57;14.20;99.90
831;DHT22;397;50.564;7.272;2022-10-16T00:49:10;14.20;99.90
831;DHT22;397;50.564;7.272;2022-10-16T00:51:46;14.20;99.90
831;DHT22;397;50.564;7.272;2022-10-16T00:54:30;14.20;99.90
831;DHT22;397;50.564;7.272;2022-10-16T00:56:55;14.20;99.90
831;DHT22;397;50.564;7.272;2022-10-16T00:59:26;14.20;99.90
831;DHT22;397;50.564;7.272;2022-10-16T01:01:55;14.20;99.90
831;DHT22;397;50.564;7.272;2022-10-16T01:04:24;14.20;99.90
831;DHT22;397;50.564;7.272;2022-10-16T01:07:02;14.20;99.90
831;DHT22;397;50.564;7.272;2022-10-16T01:09:47;14.10;99.90
831;DHT22;397;50.564;7.272;2022-10-16T01:12:38;14.20;99.90
831;DHT22;397;50.564;7.272;2022-10-16T01:17:57;14.30;99.90
831;DHT22;397;50.564;7.272;2022-10-16T01:20:37;14.30;99.90
831;DHT22;397;50.564;7.272;2022-10-16T01:28:42;14.30;99.90
831;DHT22;397;50.564;7.272;2022-10-16T01:31:05;14.20;99.90
831;DHT22;397;50.564;7.272;2022-10-16T01:33:36;14.20;99.90
831;DHT22;397;50.564;7.272;2022-10-16T01:36:25;14.20;99.90
831;DHT22;397;50.564;7.272;2022-10-16T01:38:54;14.20;99.90
831;DHT22;397;50.564;7.272;2022-10-16T01:41:26;14.20;99.90
831;DHT22;397;50.564;7.272;2022-10-16T01:43:57;14.20;99.90
831;DHT22;397;50.564;7.272;2022-10-16T01:46:25;14.30;99.90
831;DHT22;397;50.564;7.272;2022-10-16T01:48:54;14.30;99.90
831;DHT22;397;50.564;7.272;2022-10-16T01:51:23;14.20;99.90
831;DHT22;397;50.564;7.272;2022-10-16T01:53:54;14.20;99.90
831;DHT22;397;50.564;7.272;2022-10-16T01:56:22;14.20;99.90
831;DHT22;397;50.564;7.272;2022-10-16T01:59:11;14.20;99.90
831;DHT22;397;50.564;7.272;2022-10-16T02:01:40;14.20;99.90
831;DHT22;397;50.564;7.272;2022-10-16T02:04:24;14.10;99.90
831;DHT22;397;50.564;7.272;2022-10-16T02:06:42;14.00;99.90
831;DHT22;397;50.564;7.272;2022-10-16T02:09:10;14.10;99.90
831;DHT22;397;50.564;7.272;2022-10-16T02:11:38;14.10;99.90
831;DHT22;397;50.564;7.272;2022-10-16T02:14:06;14.10;99.90
831;DHT22;397;50.564;7.272;2022-10-16T02:16:40;14.10;99.90
831;DHT22;397;50.564;7.272;2022-10-16T02:19:09;14.10;99.90
831;DHT22;397;50.564;7.272;2022-10-16T02:21:43;14.20;99.90
831;DHT22;397;50.564;7.272;2022-10-16T02:27:13;14.20;99.90
831;DHT22;397;50.564;7.272;2022-10-16T02:29:44;14.20;99.90
831;DHT22;397;50.564;7.272;2022-10-16T02:32:13;14.20;99.90
831;DHT22;397;50.564;7.272;2022-10-16T02:34:42;14.30;99.90
831;DHT22;397;50.564;7.272;2022-10-16T02:37:12;14.30;99.90
831;DHT22;397;50.564;7.272;2022-10-16T02:39:40;14.20;99.90
831;DHT22;397;50.564;7.272;2022-10-16T02:42:15;14.20;99.90
831;DHT22;397;50.564;7.272;2022-10-16T02:44:44;14.20;99.90
831;DHT22;397;50.564;7.272;2022-10-16T02:47:12;14.20;99.90
831;DHT22;397;50.564;7.272;2022-10-16T02:49:39;14.30;99.90
831;DHT22;397;50.564;7.272;2022-10-16T02:52:07;14.20;99.90
831;DHT22;397;50.564;7.272;2022-10-16T02:54:34;14.30;99.90
831;DHT22;397;50.564;7.272;2022-10-16T02:57:02;14.40;99.90
831;DHT22;397;50.564;7.272;2022-10-16T02:59:30;14.50;99.90
831;DHT22;397;50.564;7.272;2022-10-16T03:01:57;14.40;99.90
831;DHT22;397;50.564;7.272;2022-10-16T03:04:24;14.50;99.90
831;DHT22;397;50.564;7.272;2022-10-16T03:06:52;14.50;99.90
831;DHT22;397;50.564;7.272;2022-10-16T03:09:19;14.50;99.90
831;DHT22;397;50.564;7.272;2022-10-16T03:11:47;14.50;99.90
831;DHT22;397;50.564;7.272;2022-10-16T03:14:15;14.60;99.90
831;DHT22;397;50.564;7.272;2022-10-16T03:16:42;14.60;99.90
831;DHT22;397;50.564;7.272;2022-10-16T03:19:10;14.70;99.90
831;DHT22;397;50.564;7.272;2022-10-16T03:21:37;14.70;99.90
831;DHT22;397;50.564;7.272;2022-10-16T03:24:05;14.70;99.90
831;DHT22;397;50.564;7.272;2022-10-16T03:26:32;14.60;99.90
831;DHT22;397;50.564;7.272;2022-10-16T03:29:00;14.50;99.90
831;DHT22;397;50.564;7.272;2022-10-16T03:31:30;14.50;99.90
831;DHT22;397;50.564;7.272;2022-10-16T03:33:57;14.50;99.90
831;DHT22;397;50.564;7.272;2022-10-16T03:36:25;14.50;99.90
831;DHT22;397;50.564;7.272;2022-10-16T03:38:52;14.60;99.90
831;DHT22;397;50.564;7.272;2022-10-16T03:41:20;14.60;99.90
831;DHT22;397;50.564;7.272;2022-10-16T03:43:47;14.60;99.90
831;DHT22;397;50.564;7.272;2022-10-16T03:46:15;14.60;99.90
831;DHT22;397;50.564;7.272;2022-10-16T03:48:42;14.60;99.90
831;DHT22;397;50.564;7.272;2022-10-16T03:51:10;14.60;99.90
831;DHT22;397;50.564;7.272;2022-10-16T03:53:37;14.70;99.90
831;DHT22;397;50.564;7.272;2022-10-16T03:56:05;14.70;99.90
831;DHT22;397;50.564;7.272;2022-10-16T03:58:33;14.70;99.90
831;DHT22;397;50.564;7.272;2022-10-16T04:01:01;14.70;99.90
831;DHT22;397;50.564;7.272;2022-10-16T04:03:28;14.70;99.90
831;DHT22;397;50.564;7.272;2022-10-16T04:05:57;14.70;99.90
831;DHT22;397;50.564;7.272;2022-10-16T04:08:25;14.70;99.90
831;DHT22;397;50.564;7.272;2022-10-16T04:10:52;14.70;99.90
831;DHT22;397;50.564;7.272;2022-10-16T04:13:20;14.70;99.90
831;DHT22;397;50.564;7.272;2022-10-16T04:15:49;14.70;99.90
831;DHT22;397;50.564;7.272;2022-10-16T04:18:16;14.70;99.90
831;DHT22;397;50.564;7.272;2022-10-16T04:20:44;14.70;99.90
831;DHT22;397;50.564;7.272;2022-10-16T04:23:11;14.70;99.90
831;DHT22;397;50.564;7.272;2022-10-16T04:25:39;14.70;99.90
831;DHT22;397;50.564;7.272;2022-10-16T04:28:06;14.80;99.90
831;DHT22;397;50.564;7.272;2022-10-16T04:30:34;14.80;99.90
831;DHT22;397;50.564;7.272;2022-10-16T04:33:01;14.90;99.90
831;DHT22;397;50.564;7.272;2022-10-16T04:35:29;14.80;99.90
831;DHT22;397;50.564;7.272;2022-10-16T04:37:59;14.80;99.90
831;DHT22;397;50.564;7.272;2022-10-16T04:40:27;14.80;99.90
831;DHT22;397;50.564;7.272;2022-10-16T04:42:54;14.70;99.90
831;DHT22;397;50.564;7.272;2022-10-16T04:45:22;14.70;99.90
831;DHT22;397;50.564;7.272;2022-10-16T04:47:49;14.80;99.90
831;DHT22;397;50.564;7.272;2022-10-16T04:50:17;14.80;99.90
831;DHT22;397;50.564;7.272;2022-10-16T04:52:44;14.80;99.90
831;DHT22;397;50.564;7.272;2022-10-16T04:55:12;14.80;99.90
831;DHT22;397;50.564;7.272;2022-10-16T04:57:40;14.80;99.90
831;DHT22;397;50.564;7.272;2022-10-16T05:00:08;14.80;99.90
831;DHT22;397;50.564;7.272;2022-10-16T05:02:35;14.80;99.90
831;DHT22;397;50.564;7.272;2022-10-16T05:05:03;14.80;99.90
831;DHT22;397;50.564;7.272;2022-10-16T05:07:31;14.80;99.90
831;DHT22;397;50.564;7.272;2022-10-16T05:09:59;14.80;99.90
831;DHT22;397;50.564;7.272;2022-10-16T05:12:26;14.80;99.90
831;DHT22;397;50.564;7.272;2022-10-16T05:14:54;14.90;99.90
831;DHT22;397;50.564;7.272;2022-10-16T05:17:23;14.80;99.90
831;DHT22;397;50.564;7.272;2022-10-16T05:19:51;14.90;99.90
831;DHT22;397;50.564;7.272;2022-10-16T05:22:19;14.90;99.90
831;DHT22;397;50.564;7.272;2022-10-16T05:24:46;14.90;99.90
831;DHT22;397;50.564;7.272;2022-10-16T05:27:14;14.90;99.90
831;DHT22;397;50.564;7.272;2022-10-16T05:29:43;15.00;99.90
831;DHT22;397;50.564;7.272;2022-10-16T05:32:11;15.00;99.90
831;DHT22;397;50.564;7.272;2022-10-16T05:34:38;15.00;99.90
831;DHT22;397;50.564;7.272;2022-10-16T05:37:06;15.00;99.90
831;DHT22;397;50.564;7.272;2022-10-16T05:39:34;15.00;99.90
831;DHT22;397;50.564;7.272;2022-10-16T05:42:04;15.00;99.90
831;DHT22;397;50.564;7.272;2022-10-16T05:44:32;15.00;99.90
831;DHT22;397;50.564;7.272;2022-10-16T05:46:59;15.00;99.90
831;DHT22;397;50.564;7.272;2022-10-16T05:49:27;15.00;99.90
831;DHT22;397;50.564;7.272;2022-10-16T05:51:54;15.00;99.90
831;DHT22;397;50.564;7.272;2022-10-16T05:54:22;15.00;99.90
831;DHT22;397;50.564;7.272;2022-10-16T05:56:49;15.00;99.90
831;DHT22;397;50.564;7.272;2022-10-16T05:59:17;15.10;99.90
831;DHT22;397;50.564;7.272;2022-10-16T06:01:44;15.10;99.90
831;DHT22;397;50.564;7.272;2022-10-16T06:04:12;15.10;99.90
831;DHT22;397;50.564;7.272;2022-10-16T06:06:39;15.10;99.90
831;DHT22;397;50.564;7.272;2022-10-16T06:09:07;15.10;99.90
831;DHT22;397;50.564;7.272;2022-10-16T06:11:34;15.10;99.90
831;DHT22;397;50.564;7.272;2022-10-16T06:14:03;15.10;99.90
831;DHT22;397;50.564;7.272;2022-10-16T06:16:34;15.10;99.90
831;DHT22;397;50.564;7.272;2022-10-16T06:19:02;15.10;99.90
831;DHT22;397;50.564;7.272;2022-10-16T06:21:32;15.10;99.90
831;DHT22;397;50.564;7.272;2022-10-16T06:24:00;15.10;99.90
831;DHT22;397;50.564;7.272;2022-10-16T06:26:29;15.10;99.90
831;DHT22;397;50.564;7.272;2022-10-16T06:28:58;15.10;99.90
831;DHT22;397;50.564;7.272;2022-10-16T06:31:27;15.00;99.90
831;DHT22;397;50.564;7.272;2022-10-16T06:33:57;15.10;99.90
831;DHT22;397;50.564;7.272;2022-10-16T06:36:25;15.10;99.90
831;DHT22;397;50.564;7.272;2022-10-16T06:38:53;15.10;99.90
831;DHT22;397;50.564;7.272;2022-10-16T06:41:22;15.20;99.90
831;DHT22;397;50.564;7.272;2022-10-16T06:43:50;15.20;99.90
831;DHT22;397;50.564;7.272;2022-10-16T06:46:21;15.20;99.90
831;DHT22;397;50.564;7.272;2022-10-16T06:48:49;15.20;99.90
831;DHT22;397;50.564;7.272;2022-10-16T06:51:18;15.20;99.90
831;DHT22;397;50.564;7.272;2022-10-16T06:53:48;15.20;99.90
831;DHT22;397;50.564;7.272;2022-10-16T06:56:19;15.30;99.90
831;DHT22;397;50.564;7.272;2022-10-16T06:58:47;15.30;99.90
831;DHT22;397;50.564;7.272;2022-10-16T07:01:16;15.40;99.90
831;DHT22;397;50.564;7.272;2022-10-16T07:03:45;15.40;99.90
831;DHT22;397;50.564;7.272;2022-10-16T07:06:15;15.40;99.90
831;DHT22;397;50.564;7.272;2022-10-16T07:08:45;15.50;99.90
831;DHT22;397;50.564;7.272;2022-10-16T07:11:16;15.50;99.90
831;DHT22;397;50.564;7.272;2022-10-16T07:13:44;15.50;99.90
831;DHT22;397;50.564;7.272;2022-10-16T07:16:18;15.60;99.90
831;DHT22;397;50.564;7.272;2022-10-16T07:18:46;15.60;99.90
831;DHT22;397;50.564;7.272;2022-10-16T07:21:21;15.60;99.90
831;DHT22;397;50.564;7.272;2022-10-16T07:23:51;15.70;99.90
831;DHT22;397;50.564;7.272;2022-10-16T07:26:18;15.70;99.90
831;DHT22;397;50.564;7.272;2022-10-16T07:28:46;15.80;99.90
831;DHT22;397;50.564;7.272;2022-10-16T07:31:15;15.90;99.90
831;DHT22;397;50.564;7.272;2022-10-16T07:33:44;16.00;99.90
831;DHT22;397;50.564;7.272;2022-10-16T07:36:12;16.10;99.90
831;DHT22;397;50.564;7.272;2022-10-16T07:38:40;16.10;99.90
831;DHT22;397;50.564;7.272;2022-10-16T07:41:11;16.20;99.90
831;DHT22;397;50.564;7.272;2022-10-16T07:43:38;16.20;99.90
831;DHT22;397;50.564;7.272;2022-10-16T07:46:06;16.30;99.90
831;DHT22;397;50.564;7.272;2022-10-16T07:48:34;16.30;99.90
831;DHT22;397;50.564;7.272;2022-10-16T07:51:04;16.30;99.90
831;DHT22;397;50.564;7.272;2022-10-16T07:53:33;16.30;99.90
831;DHT22;397;50.564;7.272;2022-10-16T07:56:02;16.50;99.90
831;DHT22;397;50.564;7.272;2022-10-16T07:58:30;16.60;99.90
831;DHT22;397;50.564;7.272;2022-10-16T08:00:57;16.70;99.90
831;DHT22;397;50.564;7.272;2022-10-16T08:03:26;16.90;99.90
831;DHT22;397;50.564;7.272;2022-10-16T08:05:53;16.80;99.90
831;DHT22;397;50.564;7.272;2022-10-16T08:08:21;16.90;99.90
831;DHT22;397;50.564;7.272;2022-10-16T08:10:48;16.90;99.90
831;DHT22;397;50.564;7.272;2022-10-16T08:13:16;16.80;99.90
831;DHT22;397;50.564;7.272;2022-10-16T08:15:44;16.90;99.90
831;DHT22;397;50.564;7.272;2022-10-16T08:18:13;16.90;99.90
831;DHT22;397;50.564;7.272;2022-10-16T08:20:42;16.90;99.90
831;DHT22;397;50.564;7.272;2022-10-16T08:23:11;16.90;99.90
831;DHT22;397;50.564;7.272;2022-10-16T08:25:40;16.90;99.90
831;DHT22;397;50.564;7.272;2022-10-16T08:28:10;17.10;99.90
831;DHT22;397;50.564;7.272;2022-10-16T08:30:38;17.10;99.90
831;DHT22;397;50.564;7.272;2022-10-16T08:33:05;17.20;99.90
831;DHT22;397;50.564;7.272;2022-10-16T08:35:34;17.30;99.90
831;DHT22;397;50.564;7.272;2022-10-16T08:38:03;17.30;99.90
831;DHT22;397;50.564;7.272;2022-10-16T08:40:33;17.40;99.90
831;DHT22;397;50.564;7.272;2022-10-16T08:43:12;17.40;99.90
831;DHT22;397;50.564;7.272;2022-10-16T08:48:28;17.20;99.90
831;DHT22;397;50.564;7.272;2022-10-16T08:50:56;17.20;99.90
831;DHT22;397;50.564;7.272;2022-10-16T08:53:43;17.20;99.90
831;DHT22;397;50.564;7.272;2022-10-16T08:56:09;17.30;99.90
831;DHT22;397;50.564;7.272;2022-10-16T08:58:37;17.50;99.90
831;DHT22;397;50.564;7.272;2022-10-16T09:01:11;17.70;99.90
831;DHT22;397;50.564;7.272;2022-10-16T09:03:49;17.80;99.90
831;DHT22;397;50.564;7.272;2022-10-16T09:12:19;17.70;99.90
831;DHT22;397;50.564;7.272;2022-10-16T09:14:56;17.80;99.90
831;DHT22;397;50.564;7.272;2022-10-16T09:20:15;17.80;99.90
831;DHT22;397;50.564;7.272;2022-10-16T09:22:42;17.80;99.90
831;DHT22;397;50.564;7.272;2022-10-16T09:25:15;17.90;99.90
831;DHT22;397;50.564;7.272;2022-10-16T09:27:45;18.00;99.90
831;DHT22;397;50.564;7.272;2022-10-16T09:30:16;18.10;99.90
831;DHT22;397;50.564;7.272;2022-10-16T09:32:47;18.20;99.90
831;DHT22;397;50.564;7.272;2022-10-16T09:35:17;18.20;99.90
831;DHT22;397;50.564;7.272;2022-10-16T09:37:48;18.30;99.90
831;DHT22;397;50.564;7.272;2022-10-16T09:40:31;18.40;99.90
831;DHT22;397;50.564;7.272;2022-10-16T09:46:04;18.50;99.90
831;DHT22;397;50.564;7.272;2022-10-16T09:48:43;18.40;99.90
831;DHT22;397;50.564;7.272;2022-10-16T09:51:21;18.40;99.90
831;DHT22;397;50.564;7.272;2022-10-16T09:53:46;18.30;99.90
831;DHT22;397;50.564;7.272;2022-10-16T09:56:31;18.30;99.90
831;DHT22;397;50.564;7.272;2022-10-16T09:59:02;18.30;99.90
831;DHT22;397;50.564;7.272;2022-10-16T10:01:36;18.30;99.90
831;DHT22;397;50.564;7.272;2022-10-16T10:04:00;18.30;99.90
831;DHT22;397;50.564;7.272;2022-10-16T10:06:32;18.20;99.90
831;DHT22;397;50.564;7.272;2022-10-16T10:09:21;18.20;99.90
831;DHT22;397;50.564;7.272;2022-10-16T10:11:59;18.20;99.90
831;DHT22;397;50.564;7.272;2022-10-16T10:14:31;18.30;99.90
831;DHT22;397;50.564;7.272;2022-10-16T10:36:12;18.40;99.90
831;DHT22;397;50.564;7.272;2022-10-16T10:41:42;18.50;99.90
831;DHT22;397;50.564;7.272;2022-10-16T10:44:21;18.60;99.90
831;DHT22;397;50.564;7.272;2022-10-16T10:47:05;18.60;99.90
831;DHT22;397;50.564;7.272;2022-10-16T10:49:38;18.60;99.90
831;DHT22;397;50.564;7.272;2022-10-16T10:54:59;18.70;99.90
831;DHT22;397;50.564;7.272;2022-10-16T10:57:27;18.80;99.90
831;DHT22;397;50.564;7.272;2022-10-16T11:00:12;18.70;99.90
831;DHT22;397;50.564;7.272;2022-10-16T11:02:54;18.80;99.90
831;DHT22;397;50.564;7.272;2022-10-16T11:08:25;18.70;99.90
831;DHT22;397;50.564;7.272;2022-10-16T11:10:51;18.80;99.90
831;DHT22;397;50.564;7.272;2022-10-16T11:13:21;18.80;99.90
831;DHT22;397;50.564;7.272;2022-10-16T11:15:50;18.90;99.90
831;DHT22;397;50.564;7.272;2022-10-16T11:18:30;19.10;99.90
831;DHT22;397;50.564;7.272;2022-10-16T11:21:04;19.10;99.90
831;DHT22;397;50.564;7.272;2022-10-16T11:23:43;19.00;99.90
831;DHT22;397;50.564;7.272;2022-10-16T11:26:27;18.90;99.90
831;DHT22;397;50.564;7.272;2022-10-16T11:28:55;18.90;99.90
831;DHT22;397;50.564;7.272;2022-10-16T11:31:32;18.80;99.90
831;DHT22;397;50.564;7.272;2022-10-16T11:37:10;18.90;99.90
831;DHT22;397;50.564;7.272;2022-10-16T11:39:29;18.90;99.90
831;DHT22;397;50.564;7.272;2022-10-16T11:44:51;19.00;99.90
831;DHT22;397;50.564;7.272;2022-10-16T11:47:35;19.10;99.90
831;DHT22;397;50.564;7.272;2022-10-16T11:50:10;19.20;99.90
831;DHT22;397;50.564;7.272;2022-10-16T11:55:21;19.30;99.90
831;DHT22;397;50.564;7.272;2022-10-16T11:57:51;19.30;99.90
831;DHT22;397;50.564;7.272;2022-10-16T12:00:39;19.20;99.90
831;DHT22;397;50.564;7.272;2022-10-16T12:06:22;19.20;99.90
831;DHT22;397;50.564;7.272;2022-10-16T12:08:34;19.10;99.90
831;DHT22;397;50.564;7.272;2022-10-16T12:11:20;19.20;99.90
831;DHT22;397;50.564;7.272;2022-10-16T12:13:41;19.30;99.90
831;DHT22;397;50.564;7.272;2022-10-16T12:16:20;19.40;99.90
831;DHT22;397;50.564;7.272;2022-10-16T12:18:47;19.50;99.90
831;DHT22;397;50.564;7.272;2022-10-16T12:21:17;19.40;99.90
831;DHT22;397;50.564;7.272;2022-10-16T12:24:02;19.50;99.90
831;DHT22;397;50.564;7.272;2022-10-16T12:26:41;19.60;99.90
831;DHT22;397;50.564;7.272;2022-10-16T12:29:32;19.70;99.90
831;DHT22;397;50.564;7.272;2022-10-16T12:31:59;19.90;99.90
831;DHT22;397;50.564;7.272;2022-10-16T12:34:44;19.80;99.90
831;DHT22;397;50.564;7.272;2022-10-16T12:38:03;19.90;99.90
831;DHT22;397;50.564;7.272;2022-10-16T12:39:42;19.90;99.90
831;DHT22;397;50.564;7.272;2022-10-16T12:42:32;19.80;99.90
831;DHT22;397;50.564;7.272;2022-10-16T12:44:54;19.80;99.90
831;DHT22;397;50.564;7.272;2022-10-16T12:50:02;20.00;99.90
831;DHT22;397;50.564;7.272;2022-10-16T12:52:35;20.10;99.90
831;DHT22;397;50.564;7.272;2022-10-16T12:55:05;20.20;99.90
831;DHT22;397;50.564;7.272;2022-10-16T13:00:32;20.30;99.90
831;DHT22;397;50.564;7.272;2022-10-16T13:03:39;20.20;99.90
831;DHT22;397;50.564;7.272;2022-10-16T13:06:17;20.10;99.90
831;DHT22;397;50.564;7.272;2022-10-16T13:09:09;20.00;99.90
831;DHT22;397;50.564;7.272;2022-10-16T13:17:54;20.00;99.90
831;DHT22;397;50.564;7.272;2022-10-16T13:24:10;20.00;99.90
831;DHT22;397;50.564;7.272;2022-10-16T13:26:12;20.10;99.90
831;DHT22;397;50.564;7.272;2022-10-16T13:28:38;20.00;99.90
831;DHT22;397;50.564;7.272;2022-10-16T13:31:18;19.70;99.90
831;DHT22;397;50.564;7.272;2022-10-16T13:33:49;19.60;99.90
831;DHT22;397;50.564;7.272;2022-10-16T13:36:42;19.60;99.90
831;DHT22;397;50.564;7.272;2022-10-16T13:39:15;19.60;99.90
831;DHT22;397;50.564;7.272;2022-10-16T13:41:46;19.40;99.90
831;DHT22;397;50.564;7.272;2022-10-16T13:44:19;19.40;99.90
831;DHT22;397;50.564;7.272;2022-10-16T13:46:47;19.50;99.90
831;DHT22;397;50.564;7.272;2022-10-16T13:49:17;19.50;99.90
831;DHT22;397;50.564;7.272;2022-10-16T13:51:59;19.40;99.90
831;DHT22;397;50.564;7.272;2022-10-16T13:54:23;19.50;99.90
831;DHT22;397;50.564;7.272;2022-10-16T13:56:51;19.50;99.90
831;DHT22;397;50.564;7.272;2022-10-16T13:59:33;19.50;99.90
831;DHT22;397;50.564;7.272;2022-10-16T14:02:05;19.60;99.90
831;DHT22;397;50.564;7.272;2022-10-16T14:04:33;19.60;99.90
831;DHT22;397;50.564;7.272;2022-10-16T14:07:00;19.70;99.90
831;DHT22;397;50.564;7.272;2022-10-16T14:09:29;19.70;99.90
831;DHT22;397;50.564;7.272;2022-10-16T14:12:07;19.80;99.90
831;DHT22;397;50.564;7.272;2022-10-16T14:14:34;19.80;99.90
831;DHT22;397;50.564;7.272;2022-10-16T14:17:03;19.80;99.90
831;DHT22;397;50.564;7.272;2022-10-16T14:19:31;19.80;99.90
831;DHT22;397;50.564;7.272;2022-10-16T14:22:00;19.80;99.90
831;DHT22;397;50.564;7.272;2022-10-16T14:24:33;19.70;99.90
831;DHT22;397;50.564;7.272;2022-10-16T14:27:28;19.70;99.90
831;DHT22;397;50.564;7.272;2022-10-16T14:29:31;19.70;99.90
831;DHT22;397;50.564;7.272;2022-10-16T14:32:04;19.70;99.90
831;DHT22;397;50.564;7.272;2022-10-16T14:34:31;19.70;99.90
831;DHT22;397;50.564;7.272;2022-10-16T14:37:06;19.70;99.90
831;DHT22;397;50.564;7.272;2022-10-16T14:39:32;19.60;99.90
831;DHT22;397;50.564;7.272;2022-10-16T14:42:00;19.60;99.90
831;DHT22;397;50.564;7.272;2022-10-16T14:44:32;19.60;99.90
831;DHT22;397;50.564;7.272;2022-10-16T14:47:13;19.60;99.90
831;DHT22;397;50.564;7.272;2022-10-16T14:49:42;19.60;99.90
831;DHT22;397;50.564;7.272;2022-10-16T14:52:12;19.60;99.90
831;DHT22;397;50.564;7.272;2022-10-16T14:54:41;19.50;99.90
831;DHT22;397;50.564;7.272;2022-10-16T14:57:24;19.50;99.90
831;DHT22;397;50.564;7.272;2022-10-16T14:59:52;19.40;99.90
831;DHT22;397;50.564;7.272;2022-10-16T15:02:32;19.40;99.90
831;DHT22;397;50.564;7.272;2022-10-16T15:05:16;19.40;99.90
831;DHT22;397;50.564;7.272;2022-10-16T15:07:44;19.40;99.90
831;DHT22;397;50.564;7.272;2022-10-16T15:10:13;19.40;99.90
831;DHT22;397;50.564;7.272;2022-10-16T15:12:41;19.40;99.90
831;DHT22;397;50.564;7.272;2022-10-16T15:15:31;19.30;99.90
831;DHT22;397;50.564;7.272;2022-10-16T15:17:57;19.30;99.90
831;DHT22;397;50.564;7.272;2022-10-16T15:20:29;19.30;99.90
831;DHT22;397;50.564;7.272;2022-10-16T15:22:57;19.30;99.90
831;DHT22;397;50.564;7.272;2022-10-16T15:25:34;19.20;99.90
831;DHT22;397;50.564;7.272;2022-10-16T15:28:03;19.20;99.90
831;DHT22;397;50.564;7.272;2022-10-16T15:30:31;19.20;99.90
831;DHT22;397;50.564;7.272;2022-10-16T15:32:59;19.10;99.90
831;DHT22;397;50.564;7.272;2022-10-16T15:35:27;19.10;99.90
831;DHT22;397;50.564;7.272;2022-10-16T15:37:54;19.10;99.90
831;DHT22;397;50.564;7.272;2022-10-16T15:40:22;19.10;99.90
831;DHT22;397;50.564;7.272;2022-10-16T15:42:50;19.00;99.90
831;DHT22;397;50.564;7.272;2022-10-16T15:45:17;19.00;99.90
831;DHT22;397;50.564;7.272;2022-10-16T15:47:46;19.00;99.90
831;DHT22;397;50.564;7.272;2022-10-16T15:50:15;18.90;99.90
831;DHT22;397;50.564;7.272;2022-10-16T15:52:43;18.90;99.90
831;DHT22;397;50.564;7.272;2022-10-16T15:55:13;18.90;99.90
831;DHT22;397;50.564;7.272;2022-10-16T15:57:41;18.90;99.90
831;DHT22;397;50.564;7.272;2022-10-16T16:00:17;18.80;99.90
831;DHT22;397;50.564;7.272;2022-10-16T16:02:41;18.80;99.90
831;DHT22;397;50.564;7.272;2022-10-16T16:05:10;18.80;99.90
831;DHT22;397;50.564;7.272;2022-10-16T16:07:39;18.80;99.90
831;DHT22;397;50.564;7.272;2022-10-16T16:10:10;18.80;99.90
831;DHT22;397;50.564;7.272;2022-10-16T16:12:38;18.70;99.90
831;DHT22;397;50.564;7.272;2022-10-16T16:15:07;18.80;99.90
831;DHT22;397;50.564;7.272;2022-10-16T16:17:36;18.70;99.90
831;DHT22;397;50.564;7.272;2022-10-16T16:20:04;18.70;99.90
831;DHT22;397;50.564;7.272;2022-10-16T16:22:33;18.60;99.90
831;DHT22;397;50.564;7.272;2022-10-16T16:25:00;18.60;99.90
831;DHT22;397;50.564;7.272;2022-10-16T16:27:29;18.60;99.90
831;DHT22;397;50.564;7.272;2022-10-16T16:29:59;18.60;99.90
831;DHT22;397;50.564;7.272;2022-10-16T16:32:27;18.60;99.90
831;DHT22;397;50.564;7.272;2022-10-16T16:34:54;18.60;99.90
831;DHT22;397;50.564;7.272;2022-10-16T16:37:23;18.60;99.90
831;DHT22;397;50.564;7.272;2022-10-16T16:39:51;18.50;99.90
831;DHT22;397;50.564;7.272;2022-10-16T16:42:20;18.50;99.90
831;DHT22;397;50.564;7.272;2022-10-16T16:44:50;18.50;99.90
831;DHT22;397;50.564;7.272;2022-10-16T16:47:18;18.40;99.90
831;DHT22;397;50.564;7.272;2022-10-16T16:49:45;18.40;99.90
831;DHT22;397;50.564;7.272;2022-10-16T16:52:13;18.40;99.90
831;DHT22;397;50.564;7.272;2022-10-16T16:57:21;18.30;99.90
831;DHT22;397;50.564;7.272;2022-10-16T16:59:50;18.30;99.90
831;DHT22;397;50.564;7.272;2022-10-16T17:02:18;18.30;99.90
831;DHT22;397;50.564;7.272;2022-10-16T17:04:45;18.30;99.90
831;DHT22;397;50.564;7.272;2022-10-16T17:07:13;18.20;99.90
831;DHT22;397;50.564;7.272;2022-10-16T17:09:40;18.20;99.90
831;DHT22;397;50.564;7.272;2022-10-16T17:12:08;18.20;99.90
831;DHT22;397;50.564;7.272;2022-10-16T17:14:35;18.20;99.90
831;DHT22;397;50.564;7.272;2022-10-16T17:17:03;18.10;99.90
831;DHT22;397;50.564;7.272;2022-10-16T17:19:32;18.00;99.90
831;DHT22;397;50.564;7.272;2022-10-16T17:22:00;18.10;99.90
831;DHT22;397;50.564;7.272;2022-10-16T17:24:28;18.10;99.90
831;DHT22;397;50.564;7.272;2022-10-16T17:26:55;18.10;99.90
831;DHT22;397;50.564;7.272;2022-10-16T17:29:23;18.10;99.90
831;DHT22;397;50.564;7.272;2022-10-16T17:31:51;18.10;99.90
831;DHT22;397;50.564;7.272;2022-10-16T17:34:18;18.10;99.90
831;DHT22;397;50.564;7.272;2022-10-16T17:36:46;18.10;99.90
831;DHT22;397;50.564;7.272;2022-10-16T17:39:15;18.00;99.90
831;DHT22;397;50.564;7.272;2022-10-16T17:41:45;18.00;99.90
831;DHT22;397;50.564;7.272;2022-10-16T17:44:14;18.00;99.90
831;DHT22;397;50.564;7.272;2022-10-16T17:46:44;17.90;99.90
831;DHT22;397;50.564;7.272;2022-10-16T17:49:12;17.80;99.90
831;DHT22;397;50.564;7.272;2022-10-16T17:51:39;17.70;99.90
831;DHT22;397;50.564;7.272;2022-10-16T17:54:10;17.60;99.90
831;DHT22;397;50.564;7.272;2022-10-16T17:56:40;17.60;99.90
831;DHT22;397;50.564;7.272;2022-10-16T17:59:10;17.60;99.90
831;DHT22;397;50.564;7.272;2022-10-16T18:01:39;17.50;99.90
831;DHT22;397;50.564;7.272;2022-10-16T18:04:12;17.50;99.90
831;DHT22;397;50.564;7.272;2022-10-16T18:06:41;17.50;99.90
831;DHT22;397;50.564;7.272;2022-10-16T18:09:11;17.50;99.90
831;DHT22;397;50.564;7.272;2022-10-16T18:11:39;17.40;99.90
831;DHT22;397;50.564;7.272;2022-10-16T18:14:07;17.50;99.90
831;DHT22;397;50.564;7.272;2022-10-16T18:16:35;17.40;99.90
831;DHT22;397;50.564;7.272;2022-10-16T18:19:04;17.40;99.90
831;DHT22;397;50.564;7.272;2022-10-16T18:21:32;17.40;99.90